Time;durP1;ratioP1;P1;durP2;ratioP2;P2;SDS_P1;SDS_P2;PMS_P1;PMS_P2;Temp;Humidity;BMP_temperature;BMP_pressure;BME280_temperature;BME280_humidity;BME280_pressure;Samples;Min_cycle;Max_cycle;Signal;HPM_P1;HPM_P2
2023/08/14 00:02:53;;;;;;;;;6.67;6.67;;;;;25.47;43.79;100867.84;146615;575;47012;-72
2023/08/14 00:05:49;;;;;;;;;7.00;7.00;;;;;25.53;44.18;100865.16;146608;678;47011;-72
2023/08/14 00:08:42;;;;;;;;;6.00;6.00;;;;;25.56;44.58;100875.75;146605;563;46008;-72
2023/08/14 00:11:53;;;;;;;;;6.00;6.00;;;;;24.73;43.51;100729.50;146609;599;47016;-71
2023/08/14 00:14:47;;;;;;;;;6.67;6.67;;;;;25.67;43.65;100873.91;146618;629;46020;-74
2023/08/14 00:17:41;;;;;;;;;6.67;4.67;;;;;25.74;43.46;100870.28;146613;630;46016;-75
2023/08/14 00:20:41;;;;;;;;;8.00;7.00;;;;;25.78;44.01;100863.16;146616;569;47008;-77
2023/08/14 00:23:43;;;;;;;;;6.00;4.67;;;;;25.77;44.02;100864.94;146612;655;46010;-71
2023/08/14 00:26:43;;;;;;;;;6.00;5.00;;;;;25.76;43.96;100863.19;146618;588;47008;-71
2023/08/14 00:29:41;;;;;;;;;5.33;5.33;;;;;25.74;44.35;100867.63;146605;633;48010;-70
2023/08/14 00:32:45;;;;;;;;;8.00;7.00;;;;;25.76;44.38;100870.25;146615;565;46020;-69
2023/08/14 00:35:51;;;;;;;;;8.00;6.33;;;;;25.75;43.90;100865.84;146613;573;46016;-72
2023/08/14 00:38:45;;;;;;;;;6.33;6.33;;;;;25.70;44.68;100865.91;146606;565;46008;-70
2023/08/14 00:41:49;;;;;;;;;6.00;5.00;;;;;25.69;44.80;100856.16;146609;593;47048;-70
2023/08/14 00:44:44;;;;;;;;;6.33;5.33;;;;;25.71;45.14;100861.47;146621;594;46008;-70
2023/08/14 00:47:38;;;;;;;;;5.67;5.67;;;;;25.64;45.68;100865.03;146611;563;47010;-70
2023/08/14 00:50:45;;;;;;;;;7.00;6.33;;;;;23.87;44.46;100579.84;146616;635;46021;-70
2023/08/14 00:53:55;;;;;;;;;7.33;6.33;;;;;25.44;44.62;100855.47;146613;582;47010;-69
2023/08/14 00:56:50;;;;;;;;;7.00;6.33;;;;;25.41;45.04;100854.63;146618;589;47008;-69
2023/08/14 00:59:52;;;;;;;;;;;;;;;;;;;;;
2023/08/14 01:02:58;;;;;;;;;7.00;7.00;;;;;25.33;45.49;100863.53;146611;599;48008;-71
2023/08/14 01:05:52;;;;;;;;;7.00;5.67;;;;;25.35;44.94;100856.41;146609;599;47017;-70
2023/08/14 01:09:02;;;;;;;;;7.00;6.00;;;;;24.61;44.28;100730.44;146604;565;48008;-72
2023/08/14 01:12:42;;;;;;;;;5.33;5.00;;;;;24.33;44.79;100695.25;146612;587;46017;-71
2023/08/14 01:15:47;;;;;;;;;6.33;6.00;;;;;25.12;46.14;100855.69;146617;668;46020;-72
2023/08/14 01:19:03;;;;;;;;;5.67;5.33;;;;;25.07;45.71;100857.47;146611;637;46016;-71
2023/08/14 01:22:44;;;;;;;;;5.00;5.00;;;;;24.27;45.56;100716.47;146617;571;46021;-71
2023/08/14 01:25:41;;;;;;;;;7.00;7.00;;;;;25.11;47.61;100859.25;146627;578;50010;-71
2023/08/14 01:28:54;;;;;;;;;5.33;5.33;;;;;25.15;47.98;100858.34;146618;606;47008;-70
2023/08/14 01:31:48;;;;;;;;;6.00;6.00;;;;;25.19;48.45;100860.09;146610;602;47010;-69
2023/08/14 01:34:40;;;;;;;;;8.00;6.00;;;;;25.19;48.09;100856.56;146616;597;46021;-71
2023/08/14 01:38:17;;;;;;;;;7.00;5.00;;;;;24.22;46.50;100691.78;146612;595;46022;-71
2023/08/14 01:41:29;;;;;;;;;5.33;5.00;;;;;25.15;46.98;100858.34;146601;606;47008;-73
2023/08/14 01:44:34;;;;;;;;;7.00;6.00;;;;;25.11;47.37;100857.47;146608;564;47016;-72
2023/08/14 01:47:53;;;;;;;;;6.67;6.00;;;;;24.07;46.29;100695.38;146615;618;47008;-69
2023/08/14 01:50:58;;;;;;;;;6.67;5.00;;;;;24.91;48.47;100847.84;146608;631;47010;-70
2023/08/14 01:53:51;;;;;;;;;8.00;6.67;;;;;24.78;49.05;100862.94;146613;599;47008;-69
2023/08/14 01:56:46;;;;;;;;;5.00;5.00;;;;;24.68;50.14;100859.47;146611;601;47010;-71
2023/08/14 01:59:57;;;;;;;;;7.00;7.00;;;;;24.72;48.91;100847.94;146617;563;46012;-71
2023/08/14 02:02:58;;;;;;;;;6.00;6.00;;;;;24.83;50.91;100861.16;146613;571;46016;-73
2023/08/14 02:05:57;;;;;;;;;7.33;7.00;;;;;24.95;51.34;100853.13;146619;655;47008;-71
2023/08/14 02:08:59;;;;;;;;;7.33;7.33;;;;;25.05;51.75;100853.97;146603;597;47916;-71
2023/08/14 02:11:52;;;;;;;;;7.00;7.00;;;;;25.08;51.00;100853.94;146606;553;46020;-73
2023/08/14 02:14:47;;;;;;;;;7.00;6.67;;;;;25.04;50.18;100852.19;146613;662;46016;-72
2023/08/14 02:17:41;;;;;;;;;7.00;7.00;;;;;24.98;51.83;100855.75;146614;587;46020;-70
2023/08/14 02:21:16;;;;;;;;;;;;;;;;;;;;;
2023/08/14 02:24:15;;;;;;;;;7.00;7.00;;;;;24.80;52.45;100850.56;146616;604;46020;-71
2023/08/14 02:27:10;;;;;;;;;7.67;7.00;;;;;24.74;52.81;100853.25;146603;612;48010;-71
2023/08/14 02:30:16;;;;;;;;;7.67;7.00;;;;;24.70;51.89;100844.41;146615;610;46008;-71
2023/08/14 02:33:09;;;;;;;;;7.00;6.67;;;;;24.69;52.86;100844.44;146612;564;46016;-72
2023/08/14 02:36:07;;;;;;;;;6.33;6.00;;;;;24.62;51.13;100852.41;146616;580;47020;-71
2023/08/14 02:39:12;;;;;;;;;8.00;8.00;;;;;24.62;52.41;100851.53;146614;620;46016;-71
2023/08/14 02:42:07;;;;;;;;;5.00;5.00;;;;;24.65;51.69;100851.53;146604;661;47008;-72
2023/08/14 02:45:05;;;;;;;;;5.33;5.33;;;;;24.68;51.79;100856.81;146611;587;47010;-70
2023/08/14 02:48:04;;;;;;;;;5.67;5.33;;;;;24.74;51.34;100866.53;146617;566;46008;-71
2023/08/14 02:50:59;;;;;;;;;6.33;6.33;;;;;24.78;51.37;100868.25;146609;650;47016;-69
2023/08/14 02:54:00;;;;;;;;;7.00;6.00;;;;;24.77;51.04;100862.06;146614;634;46012;-72
2023/08/14 02:56:53;;;;;;;;;8.00;7.00;;;;;24.69;50.78;100858.56;146611;572;46016;-70
2023/08/14 02:59:53;;;;;;;;;6.67;6.00;;;;;24.63;50.39;100867.44;146617;575;46008;-70
2023/08/14 03:02:54;;;;;;;;;8.33;6.67;;;;;24.61;49.39;100876.25;146609;660;46916;-70
2023/08/14 03:05:55;;;;;;;;;5.00;5.00;;;;;24.55;49.59;100868.34;146611;625;47021;-70
2023/08/14 03:08:57;;;;;;;;;;;;;;;;;;;;;
2023/08/14 03:12:08;;;;;;;;;6.00;6.00;;;;;24.40;50.46;100875.44;146602;581;47008;-71
2023/08/14 03:15:28;;;;;;;;;5.67;5.00;;;;;23.37;48.70;100704.41;146607;565;46016;-72
2023/08/14 03:18:23;;;;;;;;;7.00;5.67;;;;;24.34;50.60;100869.28;146610;591;47008;-71
2023/08/14 03:21:20;;;;;;;;;6.00;4.33;;;;;24.33;50.61;100870.16;146612;611;46016;-71
2023/08/14 03:24:24;;;;;;;;;5.33;5.00;;;;;24.34;49.52;100874.59;146609;576;47020;-70
2023/08/14 03:27:20;;;;;;;;;6.33;5.67;;;;;24.31;50.25;100867.53;146608;566;46023;-71
2023/08/14 03:30:13;;;;;;;;;6.00;6.00;;;;;24.27;50.51;100868.41;146616;621;47008;-70
2023/08/14 03:33:08;;;;;;;;;7.00;5.00;;;;;24.27;50.67;100872.81;146613;567;46017;-71
2023/08/14 03:36:06;;;;;;;;;5.00;4.33;;;;;24.27;50.16;100876.38;146612;592;48008;-71
2023/08/14 03:39:06;;;;;;;;;5.33;5.33;;;;;24.39;49.39;100879.00;146607;648;47016;-70
2023/08/14 03:42:08;;;;;;;;;6.00;5.00;;;;;24.47;49.84;100881.63;146605;577;47008;-69
2023/08/14 03:45:04;;;;;;;;;7.00;6.00;;;;;24.57;50.05;100890.44;146612;578;46010;-69
2023/08/14 03:48:03;;;;;;;;;5.33;5.33;;;;;24.57;49.35;100877.19;146615;601;46021;-70
2023/08/14 03:50:55;;;;;;;;;4.00;4.00;;;;;24.52;50.18;100877.22;146610;598;46016;-70
2023/08/14 03:53:49;;;;;;;;;6.00;4.67;;;;;24.51;50.12;100883.38;146617;569;46020;-70
2023/08/14 03:56:49;;;;;;;;;5.00;5.00;;;;;24.52;50.02;100882.50;146612;638;47017;-71
2023/08/14 03:59:45;;;;;;;;;6.67;6.00;;;;;24.55;50.19;100882.50;146617;579;46020;-71
2023/08/14 04:02:37;;;;;;;;;8.00;7.67;;;;;24.59;50.53;100878.06;146604;642;48916;-70
2023/08/14 04:05:33;;;;;;;;;6.33;6.00;;;;;24.61;50.92;100881.56;146614;569;46020;-70
2023/08/14 04:08:29;;;;;;;;;5.67;5.00;;;;;24.64;50.94;100889.50;146612;584;46016;-70
2023/08/14 04:11:23;;;;;;;;;7.00;6.33;;;;;24.69;50.88;100881.56;146604;680;47008;-72
2023/08/14 04:14:19;;;;;;;;;4.67;4.67;;;;;24.76;50.56;100891.22;146614;566;46012;-72
2023/08/14 04:17:20;;;;;;;;;7.67;7.33;;;;;24.83;50.93;100893.00;146619;738;46020;-71
2023/08/14 04:20:32;;;;;;;;;4.00;4.00;;;;;24.93;50.30;100888.53;146611;670;46915;-69
2023/08/14 04:23:38;;;;;;;;;4.00;4.00;;;;;25.01;50.59;100884.03;146616;592;46020;-69
2023/08/14 04:26:16;;;;;;;;;5.33;5.00;;;;;25.05;51.93;100892.00;146704;585;46014;-72
2023/08/14 04:29:16;;;;;;;;;7.00;6.33;;;;;25.08;51.46;100893.75;146616;667;46017;-72
2023/08/14 04:32:13;;;;;;;;;8.00;8.00;;;;;25.10;51.80;100899.91;146623;565;46020;-72
2023/08/14 04:35:20;;;;;;;;;6.67;6.67;;;;;25.09;50.60;100890.19;146618;628;46918;-71
2023/08/14 04:38:17;;;;;;;;;7.00;7.00;;;;;25.08;51.78;100904.38;146624;645;47010;-71
2023/08/14 04:41:11;;;;;;;;;5.67;5.67;;;;;25.09;51.44;100900.81;146618;563;46016;-71
2023/08/14 04:44:14;;;;;;;;;7.67;7.33;;;;;25.11;52.28;100894.59;146624;613;46021;-71
2023/08/14 04:47:33;;;;;;;;;5.33;5.33;;;;;25.20;51.51;100904.28;146618;564;47014;-72
2023/08/14 04:50:31;;;;;;;;;4.00;4.00;;;;;25.33;52.22;100905.13;146621;600;46021;-70
2023/08/14 04:53:32;;;;;;;;;5.33;5.00;;;;;25.50;52.44;100903.22;146620;671;47012;-69
2023/08/14 04:56:38;;;;;;;;;6.00;6.00;;;;;25.68;51.20;100906.62;146623;597;46029;-70
2023/08/14 04:59:31;;;;;;;;;6.00;4.67;;;;;25.83;51.93;100909.19;146618;578;46012;-69
2023/08/14 05:02:29;;;;;;;;;6.00;6.00;;;;;25.96;51.59;100908.19;146621;608;47033;-68
2023/08/14 05:38:24;;;;;;;;;6.00;5.75;;;;;26.11;51.71;100922.25;146713;564;46012;-69
2023/08/14 05:41:21;;;;;;;;;5.00;5.00;;;;;26.12;50.34;100927.53;146626;571;46944;-76
2023/08/14 05:44:24;;;;;;;;;5.00;4.33;;;;;26.19;50.17;100925.69;146630;563;46020;-68
2023/08/14 05:47:35;;;;;;;;;;;;;;;;;;;;;
2023/08/14 05:50:52;;;;;;;;;5.00;5.00;;;;;26.38;49.42;100924.59;146632;572;45021;-70
2023/08/14 05:53:47;;;;;;;;;6.67;6.67;;;;;26.46;50.66;100927.19;146619;602;46016;-72
2023/08/14 05:56:39;;;;;;;;;7.33;7.00;;;;;26.46;50.79;100930.72;146631;571;46010;-70
